sensor_id;sensor_type;location;lat;lon;timestamp;pressure;altitude;pressure_sealevel;temperature;humidity
71151;BME280;59071;42.138;24.768;2023-03-01T00:01:59;100475.13;;;6.57;94.93
71151;BME280;59071;42.138;24.768;2023-03-01T00:04:24;100475.13;;;6.65;94.02
71151;BME280;59071;42.138;24.768;2023-03-01T00:06:49;100479.75;;;6.63;94.14
71151;BME280;59071;42.138;24.768;2023-03-01T00:09:15;100481.47;;;6.81;95.20
71151;BME280;59071;42.138;24.768;2023-03-01T00:11:40;100483.28;;;6.80;93.18
71151;BME280;59071;42.138;24.768;2023-03-01T00:14:05;100484.47;;;6.86;93.03
71151;BME280;59071;42.138;24.768;2023-03-01T00:16:35;100474.50;;;6.72;94.09
71151;BME280;59071;42.138;24.768;2023-03-01T00:19:01;100477.69;;;6.83;92.05
71151;BME280;59071;42.138;24.768;2023-03-01T00:21:27;100478.13;;;6.71;94.17
71151;BME280;59071;42.138;24.768;2023-03-01T00:23:52;100481.47;;;6.81;93.34
71151;BME280;59071;42.138;24.768;2023-03-01T00:26:18;100477.84;;;6.82;93.36
71151;BME280;59071;42.138;24.768;2023-03-01T00:28:44;100475.81;;;6.76;92.62
71151;BME280;59071;42.138;24.768;2023-03-01T00:31:11;100479.09;;;6.61;94.08
71151;BME280;59071;42.138;24.768;2023-03-01T00:33:36;100478.88;;;6.55;93.43
71151;BME280;59071;42.138;24.768;2023-03-01T00:36:02;100480.94;;;6.26;95.22
71151;BME280;59071;42.138;24.768;2023-03-01T00:38:28;100477.03;;;6.13;95.51
71151;BME280;59071;42.138;24.768;2023-03-01T00:40:53;100474.63;;;6.62;94.25
71151;BME280;59071;42.138;24.768;2023-03-01T00:43:18;100468.44;;;6.45;94.23
71151;BME280;59071;42.138;24.768;2023-03-01T00:45:44;100461.25;;;6.63;93.64
71151;BME280;59071;42.138;24.768;2023-03-01T00:48:09;100458.56;;;6.55;93.83
71151;BME280;59071;42.138;24.768;2023-03-01T00:50:35;100450.88;;;6.78;93.41
71151;BME280;59071;42.138;24.768;2023-03-01T00:53:00;100455.16;;;6.71;93.54
71151;BME280;59071;42.138;24.768;2023-03-01T00:55:25;100451.75;;;6.44;94.59
71151;BME280;59071;42.138;24.768;2023-03-01T00:57:51;100443.25;;;6.67;93.47
71151;BME280;59071;42.138;24.768;2023-03-01T01:00:17;100446.72;;;6.76;93.34
71151;BME280;59071;42.138;24.768;2023-03-01T01:02:42;100442.06;;;6.70;94.13
71151;BME280;59071;42.138;24.768;2023-03-01T01:05:07;100442.59;;;6.73;93.31
71151;BME280;59071;42.138;24.768;2023-03-01T01:07:33;100436.69;;;6.88;92.39
71151;BME280;59071;42.138;24.768;2023-03-01T01:09:58;100440.91;;;6.64;93.00
71151;BME280;59071;42.138;24.768;2023-03-01T01:12:23;100438.75;;;6.59;93.66
71151;BME280;59071;42.138;24.768;2023-03-01T01:14:49;100434.28;;;6.60;93.62
71151;BME280;59071;42.138;24.768;2023-03-01T01:17:14;100434.81;;;6.72;93.16
71151;BME280;59071;42.138;24.768;2023-03-01T01:19:39;100432.50;;;6.77;92.51
71151;BME280;59071;42.138;24.768;2023-03-01T01:22:04;100430.47;;;6.62;91.63
71151;BME280;59071;42.138;24.768;2023-03-01T01:24:30;100428.53;;;6.64;92.46
71151;BME280;59071;42.138;24.768;2023-03-01T01:26:55;100431.72;;;6.84;93.46
71151;BME280;59071;42.138;24.768;2023-03-01T01:29:20;100390.84;;;6.71;90.88
71151;BME280;59071;42.138;24.768;2023-03-01T01:31:46;100436.03;;;7.02;92.10
71151;BME280;59071;42.138;24.768;2023-03-01T01:34:15;100427.72;;;6.80;92.93
71151;BME280;59071;42.138;24.768;2023-03-01T01:36:41;100430.03;;;6.75;93.74
71151;BME280;59071;42.138;24.768;2023-03-01T01:39:06;100430.72;;;6.85;92.10
71151;BME280;59071;42.138;24.768;2023-03-01T01:41:32;100425.53;;;6.59;93.42
71151;BME280;59071;42.138;24.768;2023-03-01T01:44:14;100423.75;;;6.76;93.20
71151;BME280;59071;42.138;24.768;2023-03-01T01:51:49;100426.28;;;7.11;91.99
71151;BME280;59071;42.138;24.768;2023-03-01T01:54:18;100426.97;;;7.13;91.08
71151;BME280;59071;42.138;24.768;2023-03-01T01:56:47;100430.75;;;7.02;90.97
71151;BME280;59071;42.138;24.768;2023-03-01T01:59:14;100414.66;;;6.87;91.22
71151;BME280;59071;42.138;24.768;2023-03-01T02:01:39;100420.66;;;6.97;92.09
71151;BME280;59071;42.138;24.768;2023-03-01T02:04:05;100418.53;;;6.42;93.19
71151;BME280;59071;42.138;24.768;2023-03-01T02:06:37;100412.31;;;6.68;93.75
71151;BME280;59071;42.138;24.768;2023-03-01T02:09:11;100424.56;;;6.69;92.74
71151;BME280;59071;42.138;24.768;2023-03-01T02:11:37;100415.41;;;6.55;94.07
71151;BME280;59071;42.138;24.768;2023-03-01T02:14:03;100418.13;;;6.79;93.30
71151;BME280;59071;42.138;24.768;2023-03-01T02:16:29;100418.63;;;6.75;93.07
71151;BME280;59071;42.138;24.768;2023-03-01T02:18:56;100417.16;;;6.80;93.47
71151;BME280;59071;42.138;24.768;2023-03-01T02:23:53;100410.91;;;6.39;95.32
71151;BME280;59071;42.138;24.768;2023-03-01T02:26:19;100417.44;;;6.61;95.11
71151;BME280;59071;42.138;24.768;2023-03-01T02:28:46;100413.94;;;6.52;95.80
71151;BME280;59071;42.138;24.768;2023-03-01T02:31:14;100412.50;;;6.74;93.97
71151;BME280;59071;42.138;24.768;2023-03-01T02:33:59;100410.47;;;6.52;93.90
71151;BME280;59071;42.138;24.768;2023-03-01T02:36:26;100411.50;;;6.67;95.28
71151;BME280;59071;42.138;24.768;2023-03-01T02:38:56;100415.97;;;6.75;95.14
71151;BME280;59071;42.138;24.768;2023-03-01T02:41:22;100414.09;;;6.51;94.62
71151;BME280;59071;42.138;24.768;2023-03-01T02:43:48;100411.94;;;6.46;96.15
71151;BME280;59071;42.138;24.768;2023-03-01T02:46:24;100415.75;;;6.52;95.31
71151;BME280;59071;42.138;24.768;2023-03-01T02:48:51;100406.66;;;6.54;95.07
71151;BME280;59071;42.138;24.768;2023-03-01T02:53:53;100408.28;;;6.39;96.52
71151;BME280;59071;42.138;24.768;2023-03-01T02:56:21;100412.16;;;6.18;97.76
71151;BME280;59071;42.138;24.768;2023-03-01T02:58:47;100400.50;;;6.37;96.88
71151;BME280;59071;42.138;24.768;2023-03-01T03:01:16;100409.44;;;6.36;97.48
71151;BME280;59071;42.138;24.768;2023-03-01T03:03:42;100407.84;;;6.60;95.87
71151;BME280;59071;42.138;24.768;2023-03-01T03:06:07;100402.69;;;6.42;96.15
71151;BME280;59071;42.138;24.768;2023-03-01T03:08:32;100404.94;;;6.29;97.06
71151;BME280;59071;42.138;24.768;2023-03-01T03:10:58;100408.91;;;6.33;98.04
71151;BME280;59071;42.138;24.768;2023-03-01T03:13:23;100417.28;;;6.20;96.84
71151;BME280;59071;42.138;24.768;2023-03-01T03:15:53;100400.19;;;6.40;97.24
71151;BME280;59071;42.138;24.768;2023-03-01T03:18:18;100400.41;;;6.55;96.58
71151;BME280;59071;42.138;24.768;2023-03-01T03:20:44;100402.03;;;6.56;95.34
71151;BME280;59071;42.138;24.768;2023-03-01T03:23:09;100394.97;;;6.57;96.34
71151;BME280;59071;42.138;24.768;2023-03-01T03:25:35;100398.00;;;6.36;96.66
71151;BME280;59071;42.138;24.768;2023-03-01T03:28:03;100403.03;;;6.55;96.05
71151;BME280;59071;42.138;24.768;2023-03-01T03:30:35;100404.97;;;6.37;96.04
71151;BME280;59071;42.138;24.768;2023-03-01T03:33:01;100411.03;;;6.21;98.96
71151;BME280;59071;42.138;24.768;2023-03-01T03:35:30;100407.00;;;6.51;97.93
71151;BME280;59071;42.138;24.768;2023-03-01T03:37:55;100403.03;;;6.55;96.83
71151;BME280;59071;42.138;24.768;2023-03-01T03:40:27;100398.75;;;6.62;95.94
71151;BME280;59071;42.138;24.768;2023-03-01T03:42:53;100399.53;;;6.46;96.82
71151;BME280;59071;42.138;24.768;2023-03-01T03:45:19;100414.19;;;6.24;98.70
71151;BME280;59071;42.138;24.768;2023-03-01T03:47:44;100402.44;;;5.93;98.87
71151;BME280;59071;42.138;24.768;2023-03-01T03:50:10;100393.22;;;6.31;98.49
71151;BME280;59071;42.138;24.768;2023-03-01T03:52:36;100384.84;;;6.44;98.11
71151;BME280;59071;42.138;24.768;2023-03-01T03:55:01;100390.56;;;6.31;98.17
71151;BME280;59071;42.138;24.768;2023-03-01T03:57:26;100395.88;;;5.97;98.99
71151;BME280;59071;42.138;24.768;2023-03-01T03:59:52;100397.28;;;6.17;100.00
71151;BME280;59071;42.138;24.768;2023-03-01T04:02:17;100404.97;;;6.37;99.38
71151;BME280;59071;42.138;24.768;2023-03-01T04:04:47;100403.50;;;6.00;98.95
71151;BME280;59071;42.138;24.768;2023-03-01T04:07:15;100400.84;;;6.00;99.56
71151;BME280;59071;42.138;24.768;2023-03-01T04:09:40;100402.91;;;6.22;98.47
71151;BME280;59071;42.138;24.768;2023-03-01T04:12:07;100398.22;;;6.00;100.00
71151;BME280;59071;42.138;24.768;2023-03-01T04:14:32;100395.63;;;5.90;100.00
71151;BME280;59071;42.138;24.768;2023-03-01T04:16:58;100399.41;;;6.05;100.00
71151;BME280;59071;42.138;24.768;2023-03-01T04:19:23;100404.69;;;6.05;100.00
71151;BME280;59071;42.138;24.768;2023-03-01T04:21:49;100410.50;;;6.17;99.36
71151;BME280;59071;42.138;24.768;2023-03-01T04:24:14;100412.47;;;6.15;99.42
71151;BME280;59071;42.138;24.768;2023-03-01T04:26:39;100403.75;;;6.23;99.25
71151;BME280;59071;42.138;24.768;2023-03-01T04:29:04;100401.00;;;6.41;98.19
71151;BME280;59071;42.138;24.768;2023-03-01T04:31:30;100405.88;;;6.11;99.74
71151;BME280;59071;42.138;24.768;2023-03-01T04:33:55;100403.22;;;5.85;99.35
71151;BME280;59071;42.138;24.768;2023-03-01T04:36:24;100401.44;;;6.28;99.93
71151;BME280;59071;42.138;24.768;2023-03-01T04:38:50;100415.41;;;6.04;99.31
71151;BME280;59071;42.138;24.768;2023-03-01T04:41:17;100412.16;;;6.18;99.09
71151;BME280;59071;42.138;24.768;2023-03-01T04:43:42;100407.00;;;6.51;98.10
71151;BME280;59071;42.138;24.768;2023-03-01T04:46:09;100414.88;;;6.35;98.02
71151;BME280;59071;42.138;24.768;2023-03-01T04:48:36;100412.88;;;6.37;97.86
71151;BME280;59071;42.138;24.768;2023-03-01T04:51:02;100411.94;;;6.54;97.43
71151;BME280;59071;42.138;24.768;2023-03-01T04:53:27;100414.44;;;6.56;97.09
71151;BME280;59071;42.138;24.768;2023-03-01T04:55:56;100410.16;;;6.20;97.44
71151;BME280;59071;42.138;24.768;2023-03-01T04:58:22;100408.28;;;6.04;99.65
71151;BME280;59071;42.138;24.768;2023-03-01T05:00:48;100416.53;;;6.01;99.43
71151;BME280;59071;42.138;24.768;2023-03-01T05:03:13;100416.63;;;6.18;98.83
71151;BME280;59071;42.138;24.768;2023-03-01T05:05:43;100407.53;;;6.20;99.11
71151;BME280;59071;42.138;24.768;2023-03-01T05:08:09;100416.38;;;7.29;100.00
71151;BME280;59071;42.138;24.768;2023-03-01T05:10:42;100410.84;;;6.65;96.22
71151;BME280;59071;42.138;24.768;2023-03-01T05:13:08;100401.34;;;6.46;96.84
71151;BME280;59071;42.138;24.768;2023-03-01T05:15:33;100399.38;;;6.48;97.65
71151;BME280;59071;42.138;24.768;2023-03-01T05:17:59;100406.66;;;6.46;98.13
71151;BME280;59071;42.138;24.768;2023-03-01T05:20:28;100407.34;;;6.14;99.15
71151;BME280;59071;42.138;24.768;2023-03-01T05:22:58;100406.25;;;6.24;98.34
71151;BME280;59071;42.138;24.768;2023-03-01T05:25:23;100411.03;;;6.21;99.41
71151;BME280;59071;42.138;24.768;2023-03-01T05:27:49;100409.72;;;6.25;98.30
71151;BME280;59071;42.138;24.768;2023-03-01T05:30:14;100401.25;;;6.13;98.99
71151;BME280;59071;42.138;24.768;2023-03-01T05:32:40;100403.91;;;6.21;99.88
71151;BME280;59071;42.138;24.768;2023-03-01T05:35:06;100411.88;;;6.30;99.92
71151;BME280;59071;42.138;24.768;2023-03-01T05:37:31;100414.88;;;6.35;97.79
71151;BME280;59071;42.138;24.768;2023-03-01T05:39:56;100420.94;;;6.27;98.16
71151;BME280;59071;42.138;24.768;2023-03-01T05:42:21;100421.50;;;6.47;98.23
71151;BME280;59071;42.138;24.768;2023-03-01T05:44:47;100421.41;;;6.22;99.16
71151;BME280;59071;42.138;24.768;2023-03-01T05:47:12;100422.72;;;6.18;98.60
71151;BME280;59071;42.138;24.768;2023-03-01T05:49:38;100425.91;;;6.30;98.98
71151;BME280;59071;42.138;24.768;2023-03-01T05:52:03;100421.75;;;6.19;98.90
71151;BME280;59071;42.138;24.768;2023-03-01T05:54:28;100426.50;;;6.16;97.41
71151;BME280;59071;42.138;24.768;2023-03-01T05:56:53;100431.25;;;6.04;99.13
71151;BME280;59071;42.138;24.768;2023-03-01T05:59:19;100432.56;;;6.00;99.31
71151;BME280;59071;42.138;24.768;2023-03-01T06:01:44;100435.13;;;6.18;98.99
71151;BME280;59071;42.138;24.768;2023-03-01T06:04:09;100441.44;;;6.25;99.51
71151;BME280;59071;42.138;24.768;2023-03-01T06:06:35;100445.72;;;6.26;98.61
71151;BME280;59071;42.138;24.768;2023-03-01T06:09:04;100439.34;;;6.45;97.98
71151;BME280;59071;42.138;24.768;2023-03-01T06:11:33;100439.72;;;6.58;97.61
71151;BME280;59071;42.138;24.768;2023-03-01T06:13:58;100440.16;;;6.37;97.86
71151;BME280;59071;42.138;24.768;2023-03-01T06:16:23;100428.53;;;6.64;97.04
71151;BME280;59071;42.138;24.768;2023-03-01T06:18:49;100446.03;;;6.65;96.39
71151;BME280;59071;42.138;24.768;2023-03-01T06:21:14;100440.28;;;6.70;95.75
71151;BME280;59071;42.138;24.768;2023-03-01T06:23:39;100443.59;;;6.80;96.58
71151;BME280;59071;42.138;24.768;2023-03-01T06:26:05;100434.66;;;6.81;96.17
71151;BME280;59071;42.138;24.768;2023-03-01T06:28:31;100440.59;;;6.67;96.67
71151;BME280;59071;42.138;24.768;2023-03-01T06:30:56;100445.31;;;7.22;94.53
71151;BME280;59071;42.138;24.768;2023-03-01T06:33:21;100440.00;;;6.90;94.59
71151;BME280;59071;42.138;24.768;2023-03-01T06:35:49;100454.50;;;6.77;95.86
71151;BME280;59071;42.138;24.768;2023-03-01T06:38:14;100444.19;;;6.58;97.73
71151;BME280;59071;42.138;24.768;2023-03-01T06:40:40;100449.38;;;6.76;96.65
71151;BME280;59071;42.138;24.768;2023-03-01T06:43:05;100440.75;;;6.65;96.58
71151;BME280;59071;42.138;24.768;2023-03-01T06:45:32;100441.91;;;6.63;97.85
71151;BME280;59071;42.138;24.768;2023-03-01T06:48:06;100442.22;;;6.68;96.94
71151;BME280;59071;42.138;24.768;2023-03-01T06:50:33;100448.22;;;6.78;99.03
71151;BME280;59071;42.138;24.768;2023-03-01T06:52:58;100445.31;;;7.22;96.66
71151;BME280;59071;42.138;24.768;2023-03-01T06:55:23;100449.97;;;7.20;94.95
71151;BME280;59071;42.138;24.768;2023-03-01T06:57:49;100448.97;;;7.30;93.99
71151;BME280;59071;42.138;24.768;2023-03-01T07:00:18;100452.78;;;7.35;92.24
71151;BME280;59071;42.138;24.768;2023-03-01T07:02:44;100457.09;;;7.69;91.06
71151;BME280;59071;42.138;24.768;2023-03-01T07:05:09;100453.91;;;7.82;89.86
71151;BME280;59071;42.138;24.768;2023-03-01T07:07:34;100444.63;;;8.50;87.05
71151;BME280;59071;42.138;24.768;2023-03-01T07:10:00;100446.25;;;8.59;84.88
71151;BME280;59071;42.138;24.768;2023-03-01T07:12:25;100451.91;;;7.84;88.49
71151;BME280;59071;42.138;24.768;2023-03-01T07:14:50;100445.50;;;7.46;90.93
71151;BME280;59071;42.138;24.768;2023-03-01T07:17:15;100448.50;;;7.42;91.79
71151;BME280;59071;42.138;24.768;2023-03-01T07:19:41;100453.38;;;7.95;90.79
71151;BME280;59071;42.138;24.768;2023-03-01T07:22:06;100445.78;;;8.39;87.73
71151;BME280;59071;42.138;24.768;2023-03-01T07:24:33;100447.97;;;7.31;91.52
71151;BME280;59071;42.138;24.768;2023-03-01T07:26:58;100448.78;;;7.23;93.78
71151;BME280;59071;42.138;24.768;2023-03-01T07:29:23;100442.03;;;7.37;93.52
71151;BME280;59071;42.138;24.768;2023-03-01T07:31:49;100453.72;;;8.00;90.32
71151;BME280;59071;42.138;24.768;2023-03-01T07:34:14;100448.63;;;7.66;90.09
71151;BME280;59071;42.138;24.768;2023-03-01T07:36:39;100443.00;;;7.60;91.98
71151;BME280;59071;42.138;24.768;2023-03-01T07:39:08;100439.88;;;7.49;92.42
71151;BME280;59071;42.138;24.768;2023-03-01T07:41:33;100442.84;;;7.54;92.64
71151;BME280;59071;42.138;24.768;2023-03-01T07:43:58;100438.16;;;7.89;89.33
71151;BME280;59071;42.138;24.768;2023-03-01T07:46:23;100431.09;;;7.48;91.00
71151;BME280;59071;42.138;24.768;2023-03-01T07:48:49;100428.44;;;7.40;91.72
71151;BME280;59071;42.138;24.768;2023-03-01T07:51:14;100433.75;;;7.56;92.50
71151;BME280;59071;42.138;24.768;2023-03-01T07:53:39;100436.81;;;8.09;89.68
71151;BME280;59071;42.138;24.768;2023-03-01T07:56:09;100435.78;;;8.10;88.63
71151;BME280;59071;42.138;24.768;2023-03-01T07:58:34;100441.31;;;7.84;89.81
71151;BME280;59071;42.138;24.768;2023-03-01T08:01:01;100428.94;;;7.60;90.92
71151;BME280;59071;42.138;24.768;2023-03-01T08:03:27;100430.91;;;7.74;90.95
71151;BME280;59071;42.138;24.768;2023-03-01T08:05:52;100434.31;;;7.99;90.02
71151;BME280;59071;42.138;24.768;2023-03-01T08:08:18;100435.88;;;7.77;89.50
71151;BME280;59071;42.138;24.768;2023-03-01T08:10:43;100437.72;;;7.60;90.17
71151;BME280;59071;42.138;24.768;2023-03-01T08:13:08;100437.72;;;7.52;90.15
71151;BME280;59071;42.138;24.768;2023-03-01T08:15:34;100428.88;;;7.93;89.43
71151;BME280;59071;42.138;24.768;2023-03-01T08:17:59;100428.44;;;8.20;87.36
71151;BME280;59071;42.138;24.768;2023-03-01T08:20:24;100430.59;;;7.69;90.01
71151;BME280;59071;42.138;24.768;2023-03-01T08:22:49;100432.94;;;7.31;91.14
71151;BME280;59071;42.138;24.768;2023-03-01T08:25:15;100441.84;;;7.38;91.66
71151;BME280;59071;42.138;24.768;2023-03-01T08:27:40;100439.50;;;7.85;89.70
71151;BME280;59071;42.138;24.768;2023-03-01T08:30:05;100431.91;;;7.65;88.92
71151;BME280;59071;42.138;24.768;2023-03-01T08:32:35;100429.63;;;7.37;90.34
71151;BME280;59071;42.138;24.768;2023-03-01T08:35:00;100422.13;;;7.08;93.31
71151;BME280;59071;42.138;24.768;2023-03-01T08:37:26;100433.59;;;7.58;90.55
71151;BME280;59071;42.138;24.768;2023-03-01T08:39:51;100428.44;;;7.15;91.40
71151;BME280;59071;42.138;24.768;2023-03-01T08:42:16;100427.44;;;7.33;92.17
71151;BME280;59071;42.138;24.768;2023-03-01T08:44:41;100429.28;;;7.32;92.27
71151;BME280;59071;42.138;24.768;2023-03-01T08:47:07;100426.94;;;7.46;92.54
71151;BME280;59071;42.138;24.768;2023-03-01T08:49:32;100431.91;;;7.65;91.26
71151;BME280;59071;42.138;24.768;2023-03-01T08:51:57;100428.09;;;7.59;90.86
71151;BME280;59071;42.138;24.768;2023-03-01T08:54:23;100435.56;;;7.31;91.38
71151;BME280;59071;42.138;24.768;2023-03-01T08:56:48;100435.72;;;7.54;92.81
71151;BME280;59071;42.138;24.768;2023-03-01T08:59:14;100431.78;;;7.50;91.86
71151;BME280;59071;42.138;24.768;2023-03-01T09:01:40;100433.56;;;7.25;92.34
71151;BME280;59071;42.138;24.768;2023-03-01T09:04:08;100425.31;;;7.28;93.10
71151;BME280;59071;42.138;24.768;2023-03-01T09:06:33;100421.50;;;7.39;93.66
71151;BME280;59071;42.138;24.768;2023-03-01T09:08:59;100433.56;;;7.82;91.96
71151;BME280;59071;42.138;24.768;2023-03-01T09:11:25;100424.44;;;7.69;91.31
71151;BME280;59071;42.138;24.768;2023-03-01T09:13:50;100423.75;;;7.75;90.53
71151;BME280;59071;42.138;24.768;2023-03-01T09:16:17;100427.53;;;7.97;90.06
71151;BME280;59071;42.138;24.768;2023-03-01T09:18:42;100432.94;;;8.28;87.76
71151;BME280;59071;42.138;24.768;2023-03-01T09:21:10;100429.91;;;7.75;89.86
71151;BME280;59071;42.138;24.768;2023-03-01T09:23:36;100432.25;;;7.54;91.67
71151;BME280;59071;42.138;24.768;2023-03-01T09:26:03;100433.56;;;7.82;90.08
71151;BME280;59071;42.138;24.768;2023-03-01T09:28:29;100434.47;;;8.06;89.03
71151;BME280;59071;42.138;24.768;2023-03-01T09:30:57;100430.84;;;7.99;88.15
71151;BME280;59071;42.138;24.768;2023-03-01T09:33:22;100430.41;;;7.79;91.17
71151;BME280;59071;42.138;24.768;2023-03-01T09:35:48;100424.78;;;7.57;90.36
71151;BME280;59071;42.138;24.768;2023-03-01T09:38:13;100419.91;;;7.94;91.02
71151;BME280;59071;42.138;24.768;2023-03-01T09:40:42;100416.00;;;8.29;88.07
71151;BME280;59071;42.138;24.768;2023-03-01T09:43:13;100420.34;;;8.22;89.48
71151;BME280;59071;42.138;24.768;2023-03-01T09:45:41;100424.41;;;7.93;88.83
71151;BME280;59071;42.138;24.768;2023-03-01T09:48:21;100430.81;;;8.07;91.04
71151;BME280;59071;42.138;24.768;2023-03-01T09:50:49;100412.22;;;8.23;88.98
71151;BME280;59071;42.138;24.768;2023-03-01T09:53:19;100418.31;;;7.76;91.81
71151;BME280;59071;42.138;24.768;2023-03-01T09:55:50;100411.69;;;7.72;91.92
71151;BME280;59071;42.138;24.768;2023-03-01T10:00:49;100398.25;;;8.30;88.38
71151;BME280;59071;42.138;24.768;2023-03-01T10:03:20;100400.53;;;8.01;90.17
71151;BME280;59071;42.138;24.768;2023-03-01T10:16:24;100405.25;;;7.58;90.56
71151;BME280;59071;42.138;24.768;2023-03-01T10:18:53;100392.47;;;7.78;90.35
71151;BME280;59071;42.138;24.768;2023-03-01T10:21:20;100391.75;;;8.01;89.78
71151;BME280;59071;42.138;24.768;2023-03-01T10:23:46;100397.06;;;7.93;89.92
71151;BME280;59071;42.138;24.768;2023-03-01T10:29:16;100394.91;;;7.96;90.85
71151;BME280;59071;42.138;24.768;2023-03-01T10:31:38;100392.78;;;7.83;91.11
71151;BME280;59071;42.138;24.768;2023-03-01T10:34:14;100402.59;;;7.67;92.15
71151;BME280;59071;42.138;24.768;2023-03-01T10:36:40;100390.00;;;7.69;91.67
71151;BME280;59071;42.138;24.768;2023-03-01T10:39:39;100389.41;;;8.06;93.65
71151;BME280;59071;42.138;24.768;2023-03-01T10:44:42;100397.41;;;7.90;91.81
71151;BME280;59071;42.138;24.768;2023-03-01T10:47:13;100399.00;;;8.07;92.30
71151;BME280;59071;42.138;24.768;2023-03-01T10:49:39;100389.03;;;8.17;89.52
71151;BME280;59071;42.138;24.768;2023-03-01T10:52:11;100378.31;;;8.50;89.04
71151;BME280;59071;42.138;24.768;2023-03-01T10:54:43;100384.56;;;8.18;89.17
71151;BME280;59071;42.138;24.768;2023-03-01T10:57:27;100379.84;;;8.36;88.93
71151;BME280;59071;42.138;24.768;2023-03-01T11:00:00;100372.78;;;8.60;88.32
71151;BME280;59071;42.138;24.768;2023-03-01T11:02:28;100372.75;;;8.68;87.14
71151;BME280;59071;42.138;24.768;2023-03-01T11:07:25;100362.47;;;8.26;88.30
71151;BME280;59071;42.138;24.768;2023-03-01T11:09:51;100347.84;;;8.38;88.32
71151;BME280;59071;42.138;24.768;2023-03-01T11:12:16;100346.31;;;8.12;88.22
71151;BME280;59071;42.138;24.768;2023-03-01T11:14:49;100349.94;;;7.72;90.63
71151;BME280;59071;42.138;24.768;2023-03-01T11:17:17;100340.00;;;7.74;92.54
71151;BME280;59071;42.138;24.768;2023-03-01T11:19:44;100340.41;;;7.38;93.34
71151;BME280;59071;42.138;24.768;2023-03-01T11:22:25;100341.00;;;7.64;93.22
71151;BME280;59071;42.138;24.768;2023-03-01T11:24:51;100331.78;;;8.00;92.48
71151;BME280;59071;42.138;24.768;2023-03-01T11:29:53;100330.22;;;8.14;89.67
71151;BME280;59071;42.138;24.768;2023-03-01T11:32:21;100338.84;;;7.68;91.11
71151;BME280;59071;42.138;24.768;2023-03-01T11:37:38;100315.25;;;7.98;89.04
71151;BME280;59071;42.138;24.768;2023-03-01T11:40:16;100294.13;;;7.65;91.30
71151;BME280;59071;42.138;24.768;2023-03-01T11:45:16;100310.41;;;7.54;92.55
71151;BME280;59071;42.138;24.768;2023-03-01T11:53:06;100305.41;;;7.67;91.79
71151;BME280;59071;42.138;24.768;2023-03-01T11:58:17;100291.13;;;7.85;91.57
71151;BME280;59071;42.138;24.768;2023-03-01T12:03:39;100306.06;;;7.69;89.13
71151;BME280;59071;42.138;24.768;2023-03-01T12:19:33;100286.75;;;7.92;87.29
71151;BME280;59071;42.138;24.768;2023-03-01T12:35:13;100273.13;;;8.34;85.68
71151;BME280;59071;42.138;24.768;2023-03-01T12:37:42;100271.59;;;8.63;84.52
71151;BME280;59071;42.138;24.768;2023-03-01T12:40:23;100274.78;;;8.58;85.55
71151;BME280;59071;42.138;24.768;2023-03-01T12:45:47;100267.09;;;8.87;85.84
71151;BME280;59071;42.138;24.768;2023-03-01T12:51:00;100270.59;;;8.87;83.96
71151;BME280;59071;42.138;24.768;2023-03-01T12:53:38;100263.44;;;8.88;83.61
71151;BME280;59071;42.138;24.768;2023-03-01T12:56:12;100267.19;;;8.55;83.31
71151;BME280;59071;42.138;24.768;2023-03-01T13:01:05;100265.31;;;8.33;85.36
71151;BME280;59071;42.138;24.768;2023-03-01T13:09:18;100275.56;;;8.44;83.33
71151;BME280;59071;42.138;24.768;2023-03-01T13:11:44;100269.56;;;8.19;85.39
71151;BME280;59071;42.138;24.768;2023-03-01T13:14:55;100266.19;;;8.02;87.68
71151;BME280;59071;42.138;24.768;2023-03-01T13:16:55;100262.13;;;7.83;86.85
71151;BME280;59071;42.138;24.768;2023-03-01T13:19:21;100254.50;;;7.88;87.05
71151;BME280;59071;42.138;24.768;2023-03-01T13:21:48;100262.03;;;7.68;88.41
71151;BME280;59071;42.138;24.768;2023-03-01T13:29:51;100275.28;;;7.99;87.90
71151;BME280;59071;42.138;24.768;2023-03-01T13:32:20;100279.53;;;8.09;87.09
71151;BME280;59071;42.138;24.768;2023-03-01T13:34:47;100263.31;;;7.72;87.84
71151;BME280;59071;42.138;24.768;2023-03-01T13:37:20;100269.72;;;7.86;87.61
71151;BME280;59071;42.138;24.768;2023-03-01T13:39:45;100270.91;;;8.46;86.73
71151;BME280;59071;42.138;24.768;2023-03-01T13:47:40;100272.88;;;8.21;86.97
71151;BME280;59071;42.138;24.768;2023-03-01T13:50:07;100262.72;;;8.01;86.68
71151;BME280;59071;42.138;24.768;2023-03-01T13:52:42;100267.16;;;8.01;87.33
71151;BME280;59071;42.138;24.768;2023-03-01T13:57:39;100271.03;;;8.21;87.14
71151;BME280;59071;42.138;24.768;2023-03-01T14:00:05;100262.63;;;7.78;88.75
71151;BME280;59071;42.138;24.768;2023-03-01T14:02:30;100266.34;;;8.00;89.44
71151;BME280;59071;42.138;24.768;2023-03-01T14:04:57;100237.41;;;7.91;87.02
71151;BME280;59071;42.138;24.768;2023-03-01T14:07:23;100268.25;;;7.83;87.54
71151;BME280;59071;42.138;24.768;2023-03-01T14:09:58;100271.19;;;7.49;89.69
71151;BME280;59071;42.138;24.768;2023-03-01T14:20:23;100262.72;;;7.93;88.14
71151;BME280;59071;42.138;24.768;2023-03-01T14:22:51;100266.84;;;7.64;89.18
71151;BME280;59071;42.138;24.768;2023-03-01T14:25:25;100268.41;;;7.82;89.40
71151;BME280;59071;42.138;24.768;2023-03-01T14:28:36;100271.84;;;8.22;87.53
71151;BME280;59071;42.138;24.768;2023-03-01T14:30:37;100265.88;;;7.97;87.02
71151;BME280;59071;42.138;24.768;2023-03-01T14:33:05;100271.16;;;7.97;87.36
71151;BME280;59071;42.138;24.768;2023-03-01T14:35:32;100266.72;;;7.89;89.28
71151;BME280;59071;42.138;24.768;2023-03-01T14:37:58;100273.84;;;8.51;86.62
71151;BME280;59071;42.138;24.768;2023-03-01T14:40:34;100277.44;;;8.04;86.80
71151;BME280;59071;42.138;24.768;2023-03-01T14:43:00;100282.97;;;7.86;88.00